Time;durP1;ratioP1;P1;durP2;ratioP2;P2;SDS_P1;SDS_P2;PMS_P1;PMS_P2;Temp;Humidity;BMP_temperature;BMP_pressure;BME280_temperature;BME280_humidity;BME280_pressure;Samples;Min_cycle;Max_cycle;Signal;HPM_P1;HPM_P2
2022/07/17 00:00:29;;;;;;;5.13;4.67;;;;;;;26.65;65.06;99512.38;5111409;28;20677;-65
2022/07/17 00:02:56;;;;;;;5.63;5.43;;;;;;;26.66;64.42;99532.44;5124318;28;20202;-65
2022/07/17 00:05:24;;;;;;;5.50;5.20;;;;;;;26.67;64.84;99532.28;5115068;28;20666;-65
2022/07/17 00:07:51;;;;;;;5.70;5.30;;;;;;;26.68;65.09;99533.97;5117533;27;20202;-65
2022/07/17 00:10:18;;;;;;;5.07;4.87;;;;;;;26.69;65.23;99532.97;5132310;27;20193;-65
2022/07/17 00:12:45;;;;;;;5.63;5.40;;;;;;;26.61;65.33;99517.94;5123204;27;20201;-65
2022/07/17 00:15:12;;;;;;;6.03;5.60;;;;;;;26.70;65.16;99533.78;5120551;27;20217;-64
2022/07/17 00:17:39;;;;;;;6.77;6.27;;;;;;;26.68;65.08;99539.22;5118084;27;20195;-65
2022/07/17 00:20:08;;;;;;;6.43;5.93;;;;;;;26.59;65.56;99540.09;5123864;27;20670;-65
2022/07/17 00:22:36;;;;;;;5.63;5.33;;;;;;;26.52;65.21;99536.38;5127358;27;20279;-65
2022/07/17 00:25:04;;;;;;;7.40;5.80;;;;;;;26.39;65.93;99539.31;5125799;27;20685;-65
2022/07/17 00:27:31;;;;;;;5.97;5.57;;;;;;;26.24;66.53;99539.91;5130637;27;20666;-65
2022/07/17 00:29:58;;;;;;;7.23;6.73;;;;;;;26.06;66.24;99529.25;5132882;27;20277;-65
2022/07/17 00:32:24;;;;;;;7.10;6.57;;;;;;;25.93;66.50;99528.72;5124623;27;20199;-65
2022/07/17 00:34:51;;;;;;;6.37;5.97;;;;;;;25.88;65.52;99531.75;5124405;27;20598;-65
2022/07/17 00:37:18;;;;;;;6.03;5.83;;;;;;;25.88;66.11;99539.66;5121936;27;20202;-64
2022/07/17 00:39:47;;;;;;;5.93;5.63;;;;;;;25.87;65.72;99532.75;5126540;27;20259;-65
2022/07/17 00:42:15;;;;;;;5.47;5.27;;;;;;;25.90;65.98;99534.25;5119021;27;20191;-65
2022/07/17 00:44:43;;;;;;;9.63;5.90;;;;;;;25.84;66.33;99538.28;5129027;27;20298;-65
2022/07/17 00:47:14;;;;;;;6.30;6.00;;;;;;;25.87;66.03;99543.25;5127705;27;20224;-65
2022/07/17 00:49:41;;;;;;;6.07;5.77;;;;;;;25.88;65.98;99544.09;5117906;27;20199;-65
2022/07/17 00:52:08;;;;;;;5.50;5.20;;;;;;;25.89;66.10;99545.72;5125481;27;20230;-65
2022/07/17 00:54:37;;;;;;;5.73;5.33;;;;;;;25.91;65.88;99555.13;5117728;27;20211;-65
2022/07/17 00:57:08;;;;;;;5.33;5.03;;;;;;;25.97;65.68;99554.59;5123931;27;20617;-65
2022/07/17 00:59:36;;;;;;;5.70;5.43;;;;;;;25.92;66.03;99556.78;5121481;27;20570;-65
2022/07/17 01:02:05;;;;;;;6.03;5.70;;;;;;;25.97;66.33;99554.59;5131567;27;20266;-65
2022/07/17 01:04:32;;;;;;;5.70;5.40;;;;;;;26.04;65.89;99555.66;5120430;27;20250;-65
2022/07/17 01:07:00;;;;;;;5.20;5.00;;;;;;;26.10;66.33;99570.91;5122069;27;20190;-65
2022/07/17 01:09:27;;;;;;;5.37;5.13;;;;;;;26.18;65.84;99556.22;5121428;27;20194;-65
2022/07/17 01:11:54;;;;;;;5.70;5.40;;;;;;;26.21;65.83;99566.47;5116864;27;20597;-65
2022/07/17 01:14:23;;;;;;;5.50;5.27;;;;;;;26.19;65.81;99557.91;5116497;27;20214;-65
2022/07/17 01:16:51;;;;;;;5.57;5.23;;;;;;;26.17;65.90;99565.94;5122090;27;20578;-65
2022/07/17 01:19:18;;;;;;;5.63;5.23;;;;;;;26.10;66.28;99568.28;5120412;27;20661;-65
2022/07/17 01:21:49;;;;;;;9.77;5.10;;;;;;;26.04;66.60;99575.88;5113562;27;20206;-64
2022/07/17 01:24:16;;;;;;;5.60;5.30;;;;;;;26.00;66.67;99577.13;5121896;27;20252;-65
2022/07/17 01:26:45;;;;;;;5.00;4.70;;;;;;;25.92;66.75;99577.81;5121186;27;20198;-65
2022/07/17 01:29:16;;;;;;;5.70;5.20;;;;;;;25.85;66.79;99581.97;5118636;27;20206;-65
2022/07/17 01:31:43;;;;;;;5.27;5.07;;;;;;;25.83;67.49;99583.91;5119909;27;20202;-64
2022/07/17 01:34:12;;;;;;;4.97;4.67;;;;;;;25.88;67.26;99580.88;5119190;27;20211;-65
2022/07/17 01:36:39;;;;;;;5.20;4.80;;;;;;;25.91;66.80;99580.59;5125127;27;20197;-64
2022/07/17 01:39:08;;;;;;;5.17;4.83;;;;;;;25.92;67.01;99571.72;5113977;27;20243;-65
2022/07/17 01:41:35;;;;;;;5.23;4.47;;;;;;;25.89;67.45;99578.09;5119789;27;20221;-65
2022/07/17 01:44:03;;;;;;;4.67;4.47;;;;;;;25.86;66.57;99570.50;5129845;27;20197;-65
2022/07/17 01:46:30;;;;;;;4.37;4.17;;;;;;;25.67;67.83;99565.25;5118389;27;20194;-65
2022/07/17 01:48:57;;;;;;;4.63;4.43;;;;;;;25.36;69.16;99558.41;5119980;27;20271;-64
2022/07/17 01:51:23;;;;;;;4.30;4.10;;;;;;;25.11;69.85;99558.88;5119431;27;20221;-65
2022/07/17 01:53:50;;;;;;;4.53;4.43;;;;;;;24.91;70.33;99560.66;5122525;27;20222;-64
2022/07/17 01:56:18;;;;;;;4.70;4.50;;;;;;;24.70;71.46;99560.66;5120876;27;20225;-65
2022/07/17 01:58:45;;;;;;;4.67;4.37;;;;;;;24.58;72.40;99555.66;5125954;27;20197;-65
2022/07/17 02:01:12;;;;;;;4.70;4.50;;;;;;;24.40;72.52;99542.28;5115819;27;20199;-65
2022/07/17 02:03:39;;;;;;;4.87;4.57;;;;;;;24.60;72.35;99570.28;5129759;27;20198;-65
2022/07/17 02:06:06;;;;;;;5.03;4.83;;;;;;;24.59;72.72;99563.38;5122527;27;20198;-64
2022/07/17 02:08:32;;;;;;;4.57;4.37;;;;;;;24.62;72.29;99568.34;5118442;27;20243;-65
2022/07/17 02:10:59;;;;;;;4.63;4.33;;;;;;;24.53;72.13;99558.66;5122209;27;20201;-64
2022/07/17 02:13:27;;;;;;;7.17;4.33;;;;;;;24.60;72.70;99564.19;5128421;27;20562;-65
2022/07/17 02:15:54;;;;;;;4.00;3.83;;;;;;;24.56;73.26;99579.34;5118611;27;20682;-65
2022/07/17 02:18:21;;;;;;;5.50;5.13;;;;;;;24.60;72.58;99582.53;5115889;27;20198;-64
2022/07/17 02:20:49;;;;;;;4.70;4.50;;;;;;;24.66;72.91;99579.41;5122638;27;20677;-65
2022/07/17 02:23:16;;;;;;;4.87;4.50;;;;;;;24.74;72.48;99587.47;5121859;27;20671;-64
2022/07/17 02:25:43;;;;;;;4.60;4.37;;;;;;;24.79;72.08;99586.09;5130568;27;20603;-65
2022/07/17 02:28:10;;;;;;;4.80;4.60;;;;;;;24.82;72.13;99588.47;5123545;27;20610;-64
2022/07/17 02:30:38;;;;;;;5.30;5.00;;;;;;;24.87;71.81;99599.44;5124798;27;20205;-65
2022/07/17 02:33:06;;;;;;;4.73;4.53;;;;;;;24.92;71.46;99591.16;5117477;27;20203;-65
2022/07/17 02:35:34;;;;;;;7.13;5.10;;;;;;;24.94;72.28;99590.03;5119472;27;20681;-64
2022/07/17 02:38:01;;;;;;;5.10;4.67;;;;;;;24.90;72.19;99582.59;5115283;27;20202;-65
2022/07/17 02:40:28;;;;;;;7.03;5.23;;;;;;;24.87;72.11;99588.94;5123580;27;20191;-64
2022/07/17 02:42:55;;;;;;;5.33;5.00;;;;;;;24.88;72.33;99581.91;5124698;27;20198;-64
2022/07/17 02:45:24;;;;;;;4.93;4.63;;;;;;;24.83;72.86;99579.66;5126473;27;20194;-64
2022/07/17 02:47:54;;;;;;;5.07;4.87;;;;;;;24.87;72.49;99588.09;5129145;27;20751;-65
2022/07/17 02:50:21;;;;;;;4.70;4.50;;;;;;;24.90;72.85;99591.28;5123072;27;20273;-64
2022/07/17 02:52:49;;;;;;;5.97;5.67;;;;;;;24.91;72.40;99600.78;5122189;27;20217;-64
2022/07/17 02:55:16;;;;;;;5.07;4.67;;;;;;;24.92;72.68;99596.38;5125611;27;20677;-65
2022/07/17 02:57:43;;;;;;;5.60;5.13;;;;;;;24.92;72.93;99599.84;5125209;27;20194;-65
2022/07/17 03:00:13;;;;;;;6.23;5.13;;;;;;;24.87;73.89;99603.84;5128633;27;20609;-65
2022/07/17 03:02:40;;;;;;;5.43;5.13;;;;;;;24.78;74.33;99594.91;5124545;27;20206;-64
2022/07/17 03:05:09;;;;;;;5.30;4.90;;;;;;;24.73;75.62;99604.97;5122402;27;20191;-64
2022/07/17 03:07:36;;;;;;;5.63;5.33;;;;;;;24.72;76.64;99600.69;5122851;27;20190;-65
2022/07/17 03:10:03;;;;;;;5.33;4.70;;;;;;;24.69;76.85;99606.19;5126376;27;20666;-64
2022/07/17 03:12:30;;;;;;;5.87;5.53;;;;;;;24.63;77.16;99606.72;5119530;27;20205;-64
2022/07/17 03:14:57;;;;;;;4.37;4.17;;;;;;;24.52;77.85;99598.94;5123667;27;20220;-64
2022/07/17 03:17:24;;;;;;;4.90;4.60;;;;;;;24.42;78.06;99600.69;5120459;27;20263;-64
2022/07/17 03:19:51;;;;;;;5.20;4.90;;;;;;;24.34;78.74;99603.09;5115327;27;20195;-64
2022/07/17 03:22:19;;;;;;;5.23;4.77;;;;;;;24.24;78.87;99605.66;5125987;27;20198;-64
2022/07/17 03:24:46;;;;;;;4.50;4.30;;;;;;;24.17;79.49;99608.94;5122152;27;20194;-64
2022/07/17 03:27:12;;;;;;;4.83;4.63;;;;;;;24.19;79.13;99614.84;5127191;27;20551;-64
2022/07/17 03:29:39;;;;;;;4.77;4.57;;;;;;;24.22;79.25;99618.06;5124225;28;20676;-64
2022/07/17 03:32:07;;;;;;;5.07;4.50;;;;;;;24.26;79.20;99618.63;5122581;28;20209;-64
2022/07/17 03:34:34;;;;;;;4.70;4.23;;;;;;;24.30;78.97;99627.88;5118786;28;20222;-64
2022/07/17 03:37:00;;;;;;;4.83;4.53;;;;;;;24.35;79.29;99623.09;5116905;28;20263;-65
2022/07/17 03:39:29;;;;;;;4.10;3.90;;;;;;;24.32;78.76;99628.59;5116696;28;20209;-64
2022/07/17 03:41:56;;;;;;;4.03;3.83;;;;;;;24.09;78.55;99621.78;5118063;28;20199;-64
2022/07/17 03:44:22;;;;;;;4.10;3.80;;;;;;;24.02;79.64;99626.69;5117056;27;20215;-64
2022/07/17 03:46:50;;;;;;;3.97;3.87;;;;;;;24.01;79.68;99615.38;5120638;27;20201;-64
2022/07/17 03:49:17;;;;;;;4.20;4.00;;;;;;;23.93;80.76;99622.22;5116431;27;20202;-64
2022/07/17 03:51:43;;;;;;;4.53;4.17;;;;;;;23.90;81.11;99631.16;5129120;27;20286;-64
2022/07/17 03:54:10;;;;;;;6.50;3.77;;;;;;;23.85;81.40;99635.91;5127810;27;20212;-64
2022/07/17 03:56:38;;;;;;;4.80;4.60;;;;;;;23.85;80.22;99632.47;5129938;27;20199;-65
2022/07/17 03:59:05;;;;;;;4.63;4.43;;;;;;;23.97;79.81;99645.38;5119753;27;20251;-64
2022/07/17 04:01:32;;;;;;;4.40;4.10;;;;;;;24.11;80.25;99648.66;5129376;27;20198;-65
2022/07/17 04:03:59;;;;;;;4.27;4.07;;;;;;;24.26;78.26;99644.84;5124163;27;20613;-65
2022/07/17 04:06:25;;;;;;;4.70;4.50;;;;;;;24.47;77.66;99653.53;5117255;27;20202;-65
2022/07/17 04:08:53;;;;;;;4.50;4.20;;;;;;;24.67;76.99;99655.31;5130533;27;20263;-64
2022/07/17 04:11:20;;;;;;;4.90;4.57;;;;;;;24.89;74.85;99655.19;5122579;27;20194;-65
2022/07/17 04:13:49;;;;;;;4.03;3.67;;;;;;;25.07;72.36;99663.28;5124768;27;20194;-65
2022/07/17 04:16:16;;;;;;;4.03;3.67;;;;;;;25.19;70.16;99671.91;5123095;27;20211;-65
2022/07/17 04:18:43;;;;;;;3.30;3.07;;;;;;;25.25;69.61;99666.13;5128510;27;20205;-65
2022/07/17 04:21:11;;;;;;;3.53;3.33;;;;;;;25.25;70.03;99672.19;5122985;27;20666;-65
2022/07/17 04:23:38;;;;;;;3.83;3.40;;;;;;;25.26;70.30;99662.53;5127772;27;20224;-65
2022/07/17 04:26:07;;;;;;;4.40;3.20;;;;;;;25.38;70.54;99656.22;5124648;27;20655;-64
2022/07/17 04:28:33;;;;;;;3.90;3.70;;;;;;;25.63;68.91;99671.50;5125262;27;20281;-65
2022/07/17 04:31:02;;;;;;;3.27;3.07;;;;;;;25.65;68.59;99653.84;5122046;27;20194;-65
2022/07/17 04:33:29;;;;;;;3.47;3.17;;;;;;;25.89;68.65;99680.53;5117128;27;20195;-65
2022/07/17 04:35:56;;;;;;;4.57;4.37;;;;;;;25.97;66.96;99680.69;5134420;27;20661;-65
2022/07/17 04:38:23;;;;;;;3.03;2.93;;;;;;;25.98;67.45;99682.34;5124311;27;20260;-65
2022/07/17 04:40:50;;;;;;;3.50;3.40;;;;;;;26.06;66.06;99687.75;5115424;27;20216;-65
2022/07/17 04:43:16;;;;;;;3.63;3.53;;;;;;;26.17;67.13;99686.00;5128895;27;20229;-65
2022/07/17 04:45:43;;;;;;;3.57;3.37;;;;;;;26.31;66.65;99686.41;5124065;27;20194;-65
2022/07/17 04:48:11;;;;;;;3.87;3.67;;;;;;;26.39;66.15;99696.22;5121707;27;20205;-64
2022/07/17 04:50:38;;;;;;;3.97;3.87;;;;;;;26.44;64.32;99684.31;5124657;27;20282;-65
2022/07/17 04:53:05;;;;;;;7.27;3.50;;;;;;;26.64;65.06;99690.38;5123471;28;20611;-65
2022/07/17 04:55:32;;;;;;;3.60;3.40;;;;;;;26.73;63.61;99694.78;5128891;28;20210;-65
2022/07/17 04:57:59;;;;;;;3.87;3.57;;;;;;;26.80;61.93;99692.41;5122852;28;20686;-65
2022/07/17 05:00:26;;;;;;;3.80;3.60;;;;;;;26.78;61.12;99689.94;5127034;28;20202;-67
2022/07/17 05:02:53;;;;;;;3.10;3.00;;;;;;;26.90;62.35;99701.16;5127307;28;20199;-67
2022/07/17 05:05:21;;;;;;;4.87;4.40;;;;;;;26.99;61.52;99701.13;5127817;28;20205;-67
2022/07/17 05:07:49;;;;;;;3.50;3.30;;;;;;;27.11;61.04;99705.25;5130233;28;20194;-67
2022/07/17 05:10:15;;;;;;;3.67;3.50;;;;;;;27.13;60.65;99703.31;5116304;28;20202;-67
2022/07/17 05:12:42;;;;;;;4.30;4.00;;;;;;;27.21;61.72;99693.84;5129160;27;20206;-67
2022/07/17 05:15:09;;;;;;;17.57;4.17;;;;;;;27.47;64.50;99705.41;5124834;27;21133;-67
2022/07/17 05:17:36;;;;;;;3.13;2.92;;;;;;;27.63;58.80;99716.13;5126341;27;20543;-71
2022/07/17 05:20:03;;;;;;;8.05;3.78;;;;;;;27.79;57.97;99726.06;5116911;28;20444;-69
2022/07/17 05:22:32;;;;;;;3.07;2.97;;;;;;;27.99;58.68;99714.38;5118290;27;20201;-69
2022/07/17 05:24:58;;;;;;;3.33;3.03;;;;;;;28.17;56.78;99712.66;5126354;28;20205;-67
2022/07/17 05:27:25;;;;;;;2.73;2.53;;;;;;;28.19;54.88;99717.75;5131586;28;20201;-67
2022/07/17 05:29:52;;;;;;;7.23;2.40;;;;;;;28.25;54.72;99725.06;5131651;28;20198;-67
2022/07/17 05:32:19;;;;;;;2.00;1.90;;;;;;;28.43;55.14;99710.06;5131545;28;20194;-67
2022/07/17 05:34:46;;;;;;;2.50;2.40;;;;;;;28.61;54.21;99721.41;5131454;28;20204;-67
2022/07/17 05:37:12;;;;;;;6.97;2.10;;;;;;;28.87;52.82;99721.47;5130848;27;20202;-67
2022/07/17 05:39:41;;;;;;;2.00;1.90;;;;;;;28.96;52.28;99729.28;5131463;28;20202;-67
2022/07/17 05:42:07;;;;;;;20.60;3.67;;;;;;;29.19;52.61;99727.78;5131280;28;20649;-67
2022/07/17 05:44:34;;;;;;;3.25;1.67;;;;;;;29.34;51.78;99728.03;5131285;27;20194;-69
2022/07/17 05:47:01;;;;;;;2.20;2.10;;;;;;;29.53;50.90;99732.28;5128348;28;20202;-69
2022/07/17 05:49:28;;;;;;;1.83;1.73;;;;;;;29.59;51.96;99732.47;5124668;28;20262;-69
2022/07/17 05:51:55;;;;;;;2.35;1.85;;;;;;;29.82;49.90;99738.00;5079350;27;1239531;-69
2022/07/17 05:54:22;;;;;;;2.33;2.22;;;;;;;29.92;49.35;99746.63;5117038;27;20665;-70
2022/07/17 05:56:50;;;;;;;1.95;1.90;;;;;;;30.15;50.56;99745.03;5123843;27;20206;-69
2022/07/17 05:59:16;;;;;;;1.50;1.50;;;;;;;30.49;49.27;99746.75;5133296;27;20205;-69
2022/07/17 06:01:43;;;;;;;2.50;1.70;;;;;;;30.79;49.68;99742.63;5132849;27;20198;-68
2022/07/17 06:04:10;;;;;;;2.20;1.98;;;;;;;30.99;49.81;99750.06;5127265;27;20251;-67
2022/07/17 06:06:37;;;;;;;1.98;1.88;;;;;;;31.08;47.44;99751.69;5132093;27;20254;-68
2022/07/17 06:09:04;;;;;;;1.75;1.75;;;;;;;31.29;47.93;99747.66;5132853;27;20206;-67
2022/07/17 06:11:30;;;;;;;2.00;1.90;;;;;;;31.59;45.21;99747.78;5132659;27;20665;-68
2022/07/17 06:13:59;;;;;;;2.10;1.90;;;;;;;31.69;46.97;99744.91;5132942;27;20194;-67
2022/07/17 06:16:26;;;;;;;3.03;2.78;;;;;;;31.93;46.98;99744.78;5132154;27;20309;-68
2022/07/17 06:18:52;;;;;;;1.92;1.83;;;;;;;32.28;43.45;99737.31;5114991;27;20198;-68
2022/07/17 06:21:19;;;;;;;16.15;3.22;;;;;;;32.52;42.78;99731.78;5119143;27;20207;-68
2022/07/17 06:23:46;;;;;;;9.38;2.45;;;;;;;32.65;43.40;99732.06;5118034;27;20201;-70
2022/07/17 06:26:13;;;;;;;2.05;1.95;;;;;;;32.57;43.50;99727.63;5116389;27;20706;-69
2022/07/17 06:28:40;;;;;;;3.97;1.83;;;;;;;32.60;41.49;99731.78;5114822;27;20582;-70
2022/07/17 06:31:08;;;;;;;1.73;1.63;;;;;;;32.70;40.10;99738.47;5116101;27;20205;-69
2022/07/17 06:33:36;;;;;;;3.80;2.00;;;;;;;32.85;40.56;99735.84;5132215;27;20197;-70
2022/07/17 06:36:03;;;;;;;2.38;1.70;;;;;;;33.14;40.79;99735.09;5132336;27;20221;-70
2022/07/17 06:38:30;;;;;;;1.75;1.42;;;;;;;33.41;38.97;99741.59;5129039;27;20202;-70
2022/07/17 06:40:57;;;;;;;1.98;1.88;;;;;;;33.62;39.83;99744.34;5114809;27;20207;-70
2022/07/17 06:43:24;;;;;;;8.40;3.25;;;;;;;33.81;38.31;99750.91;5120152;27;20207;-70
2022/07/17 06:45:53;;;;;;;5.47;3.88;;;;;;;33.76;37.07;99751.50;5127804;27;20195;-70
2022/07/17 06:48:22;;;;;;;3.58;3.28;;;;;;;33.74;39.98;99733.03;5128838;27;20230;-67
2022/07/17 06:50:52;;;;;;;1.83;1.75;;;;;;;33.91;37.13;99746.94;5116019;27;20702;-68
2022/07/17 06:53:19;;;;;;;1.42;1.42;;;;;;;33.75;37.75;99744.50;5124497;27;20198;-67
2022/07/17 06:55:46;;;;;;;2.15;1.95;;;;;;;33.61;36.83;99743.53;5129125;27;20221;-68
2022/07/17 06:58:13;;;;;;;2.28;1.88;;;;;;;33.64;36.94;99734.34;5132152;27;20197;-67
2022/07/17 07:00:40;;;;;;;1.73;1.63;;;;;;;33.47;37.13;99716.94;5132337;27;20611;-68
2022/07/17 07:03:07;;;;;;;1.85;1.75;;;;;;;33.49;38.40;99744.16;5132182;27;20201;-70
2022/07/17 07:05:35;;;;;;;2.42;2.33;;;;;;;33.57;36.78;99746.72;5131862;27;20202;-70
2022/07/17 07:08:02;;;;;;;2.10;2.00;;;;;;;33.71;36.15;99748.53;5132029;27;20555;-70
2022/07/17 07:10:29;;;;;;;1.88;1.80;;;;;;;33.89;36.84;99745.50;5131991;27;20202;-69
2022/07/17 07:12:56;;;;;;;1.52;1.42;;;;;;;33.79;34.23;99737.81;5131879;27;20689;-70
2022/07/17 07:15:24;;;;;;;7.85;2.13;;;;;;;34.01;35.64;99755.47;5129918;27;20277;-69
2022/07/17 07:17:51;;;;;;;1.98;1.88;;;;;;;33.83;35.99;99751.56;5118045;27;20252;-70
2022/07/17 07:20:18;;;;;;;1.83;1.73;;;;;;;33.70;34.57;99746.91;5129486;27;20198;-70
2022/07/17 07:22:46;;;;;;;7.05;2.30;;;;;;;33.32;35.22;99745.34;5122709;28;20199;-70
2022/07/17 07:25:13;;;;;;;2.05;1.77;;;;;;;33.12;37.38;99753.84;5130453;27;20233;-70
2022/07/17 07:27:40;;;;;;;2.42;1.42;;;;;;;33.19;34.84;99752.13;5112888;28;20202;-69
2022/07/17 07:30:09;;;;;;;1.85;1.75;;;;;;;33.42;35.54;99753.88;5124032;28;20586;-69
2022/07/17 07:32:36;;;;;;;2.15;1.83;;;;;;;33.54;33.83;99757.72;5116404;28;20658;-69
2022/07/17 07:35:04;;;;;;;4.75;2.03;;;;;;;33.61;35.57;99751.50;5117919;28;20629;-70
2022/07/17 07:37:30;;;;;;;3.78;1.63;;;;;;;33.72;35.87;99753.69;5130008;28;20214;-69
2022/07/17 07:39:59;;;;;;;6.00;1.80;;;;;;;33.95;33.32;99756.22;5128006;28;20193;-70
2022/07/17 07:42:26;;;;;;;2.03;1.50;;;;;;;34.09;33.85;99762.50;5131893;28;20681;-70
2022/07/17 07:44:53;;;;;;;1.48;1.48;;;;;;;34.30;34.61;99759.88;5117027;28;20194;-70
2022/07/17 07:47:20;;;;;;;1.60;1.50;;;;;;;34.13;32.68;99767.28;5115419;28;20626;-70
2022/07/17 07:49:46;;;;;;;2.08;1.70;;;;;;;34.22;33.21;99758.16;5126033;28;20198;-70
2022/07/17 07:52:13;;;;;;;2.15;1.63;;;;;;;34.24;35.79;99763.31;5115108;28;20225;-70
2022/07/17 07:54:40;;;;;;;14.43;2.63;;;;;;;34.40;34.14;99775.53;5112372;28;20195;-68
2022/07/17 07:57:08;;;;;;;2.15;1.95;;;;;;;34.45;33.21;99770.47;5123962;28;20266;-70
2022/07/17 07:59:35;;;;;;;3.35;1.80;;;;;;;34.60;31.76;99772.09;5123017;28;20202;-70
2022/07/17 08:02:03;;;;;;;2.00;1.90;;;;;;;34.50;33.22;99784.88;5127421;28;20712;-70
2022/07/17 08:04:30;;;;;;;1.67;1.67;;;;;;;34.44;33.16;99776.81;5131557;28;20194;-70
2022/07/17 08:06:57;;;;;;;2.00;1.90;;;;;;;34.42;32.07;99778.81;5131204;28;20208;-70
2022/07/17 08:09:24;;;;;;;1.80;1.42;;;;;;;34.56;33.44;99776.13;5131480;28;20259;-70
2022/07/17 08:11:51;;;;;;;12.40;2.95;;;;;;;34.67;32.67;99782.81;5131132;28;20738;-69
2022/07/17 08:14:19;;;;;;;1.75;1.65;;;;;;;34.77;32.62;99778.78;5126015;27;20198;-70
2022/07/17 08:16:46;;;;;;;1.58;1.33;;;;;;;34.66;31.92;99773.97;5116232;28;20587;-69
2022/07/17 08:19:12;;;;;;;3.47;1.70;;;;;;;34.76;32.63;99771.00;5118540;28;20259;-69
2022/07/17 08:21:39;;;;;;;3.03;1.95;;;;;;;34.76;31.66;99771.00;5128582;28;20662;-70
2022/07/17 08:24:06;;;;;;;1.65;1.58;;;;;;;34.75;31.33;99756.84;5131333;28;20673;-70
2022/07/17 08:26:33;;;;;;;2.35;1.65;;;;;;;34.99;31.03;99771.59;5131414;28;20202;-70
2022/07/17 08:29:00;;;;;;;4.15;2.00;;;;;;;34.90;31.83;99778.06;5131575;27;20297;-70
2022/07/17 08:31:28;;;;;;;1.40;1.30;;;;;;;34.89;33.27;99775.59;5135161;27;20198;-70
2022/07/17 08:33:55;;;;;;;1.70;1.60;;;;;;;34.90;30.70;99783.38;5114616;28;20687;-69
2022/07/17 08:36:22;;;;;;;1.73;1.33;;;;;;;35.11;30.05;99775.38;5114473;28;20206;-70
2022/07/17 08:38:49;;;;;;;2.15;1.58;;;;;;;35.13;31.65;99776.00;5126435;27;20194;-70
2022/07/17 08:41:16;;;;;;;1.90;1.80;;;;;;;35.06;32.41;99775.09;5126409;27;20198;-70
2022/07/17 08:43:43;;;;;;;3.83;1.52;;;;;;;35.14;31.25;99775.00;5127933;27;20211;-70
2022/07/17 08:46:11;;;;;;;2.25;1.40;;;;;;;35.23;32.74;99773.00;5129017;27;20197;-69
2022/07/17 08:48:41;;;;;;;2.53;1.63;;;;;;;35.11;31.91;99770.06;5124867;27;20199;-70
2022/07/17 08:51:09;;;;;;;3.60;2.00;;;;;;;35.11;32.21;99775.38;5118134;27;20218;-70
2022/07/17 08:53:36;;;;;;;2.20;1.70;;;;;;;35.19;30.68;99771.72;5129634;27;20194;-70
2022/07/17 08:56:02;;;;;;;2.95;1.95;;;;;;;35.41;33.59;99770.66;5117182;27;20275;-69
2022/07/17 08:58:30;;;;;;;9.07;1.90;;;;;;;35.42;29.65;99768.78;5117452;27;20671;-70
2022/07/17 09:00:57;;;;;;;1.38;1.38;;;;;;;35.60;31.11;99763.78;5121996;27;20198;-70
2022/07/17 09:03:24;;;;;;;1.77;1.67;;;;;;;35.75;31.05;99767.13;5125837;27;20202;-70
2022/07/17 09:05:53;;;;;;;3.92;1.88;;;;;;;35.95;29.60;99767.22;5124365;27;20255;-70
2022/07/17 09:08:21;;;;;;;1.70;1.60;;;;;;;35.85;28.98;99767.59;5133291;27;20205;-69
2022/07/17 09:10:49;;;;;;;1.50;1.50;;;;;;;35.92;29.36;99778.28;5128733;27;20202;-71
2022/07/17 09:13:19;;;;;;;1.63;1.52;;;;;;;36.03;30.25;99786.53;5123812;27;20616;-70
2022/07/17 09:15:46;;;;;;;1.65;1.23;;;;;;;35.97;26.86;99782.00;5120371;27;20209;-70
2022/07/17 09:18:14;;;;;;;1.77;1.67;;;;;;;35.79;30.94;99768.38;5118026;27;20194;-70
2022/07/17 09:20:45;;;;;;;1.52;1.52;;;;;;;36.02;32.43;99784.06;5123889;27;20198;-71
2022/07/17 09:23:13;;;;;;;6.28;1.52;;;;;;;36.19;27.92;99783.53;5128161;27;20247;-70
2022/07/17 09:25:42;;;;;;;1.75;1.65;;;;;;;36.32;31.10;99775.53;5121387;27;20255;-70
2022/07/17 09:28:10;;;;;;;2.97;2.88;;;;;;;36.39;27.43;99772.06;5126130;27;20670;-71
2022/07/17 09:30:38;;;;;;;12.70;2.40;;;;;;;36.37;30.59;99782.13;5134439;27;20581;-70
2022/07/17 09:33:12;;;;;;;2.40;1.30;;;;;;;36.29;27.39;99765.25;5133968;27;20209;-70
2022/07/17 09:35:46;;;;;;;1.40;1.40;;;;;;;36.39;28.93;99758.69;5131132;27;20258;-70
2022/07/17 09:38:26;;;;;;;8.63;2.60;;;;;;;36.51;27.36;99778.47;5133835;27;20209;-70
2022/07/17 09:41:12;;;;;;;21.60;7.60;;;;;;;36.11;27.01;99783.72;5130174;27;20201;-70
2022/07/17 09:43:47;;;;;;;7.13;3.00;;;;;;;36.06;27.84;99780.81;5133811;27;20255;-70
2022/07/17 09:46:19;;;;;;;2.60;1.52;;;;;;;36.30;28.13;99782.94;5129709;27;20261;-70
2022/07/17 09:48:48;;;;;;;1.63;1.52;;;;;;;36.07;26.96;99782.47;5133840;27;20223;-70
2022/07/17 09:51:18;;;;;;;7.03;1.83;;;;;;;35.97;29.65;99786.50;5133258;27;20217;-68
2022/07/17 09:53:48;;;;;;;1.70;1.60;;;;;;;36.11;28.93;99782.88;5117254;27;20236;-68
2022/07/17 09:56:17;;;;;;;2.28;1.35;;;;;;;36.27;29.30;99778.00;5121621;27;20197;-68
2022/07/17 09:58:48;;;;;;;1.60;1.50;;;;;;;36.47;27.12;99780.72;5124630;27;20194;-68
2022/07/17 10:01:16;;;;;;;1.83;1.73;;;;;;;36.65;26.58;99766.75;5132912;27;20202;-67
2022/07/17 10:03:43;;;;;;;2.08;1.98;;;;;;;36.61;28.75;99768.22;5133197;27;20623;-68
2022/07/17 10:06:11;;;;;;;1.48;1.42;;;;;;;36.60;26.79;99772.75;5129811;27;20206;-68
2022/07/17 10:08:39;;;;;;;1.58;1.50;;;;;;;36.02;26.12;99771.56;5125819;27;20294;-66
2022/07/17 10:11:08;;;;;;;2.83;1.40;;;;;;;36.23;27.62;99771.41;5120862;27;20232;-68
2022/07/17 10:13:37;;;;;;;1.30;1.30;;;;;;;36.48;28.52;99763.63;5121781;27;20547;-67
2022/07/17 10:16:05;;;;;;;5.45;1.60;;;;;;;36.71;25.71;99765.94;5127430;27;20289;-68
2022/07/17 10:18:37;;;;;;;1.40;1.40;;;;;;;36.82;27.20;99760.00;5123846;27;20201;-68
2022/07/17 10:21:15;;;;;;;1.88;1.50;;;;;;;36.87;28.27;99756.72;5126947;27;20197;-68
2022/07/17 10:23:43;;;;;;;1.45;1.45;;;;;;;36.88;27.08;99761.84;5131399;27;20197;-68
2022/07/17 10:26:11;;;;;;;1.38;1.30;;;;;;;36.97;27.65;99755.22;5132778;27;20658;-68
2022/07/17 10:28:40;;;;;;;1.73;1.60;;;;;;;36.88;24.35;99759.16;5132559;27;20271;-67
2022/07/17 10:31:08;;;;;;;2.65;2.08;;;;;;;36.53;24.93;99749.69;5132161;27;20197;-67
2022/07/17 10:33:35;;;;;;;1.65;1.55;;;;;;;36.21;25.54;99752.13;5132797;27;20190;-68
2022/07/17 10:36:02;;;;;;;1.50;1.40;;;;;;;36.40;25.84;99757.69;5127192;27;20198;-70
2022/07/17 10:38:29;;;;;;;1.65;1.55;;;;;;;36.52;26.20;99743.50;5131469;27;20225;-71
2022/07/17 10:41:01;;;;;;;1.13;1.13;;;;;;;36.64;26.93;99735.75;5122642;27;20206;-70
2022/07/17 10:43:43;;;;;;;1.10;1.10;;;;;;;36.71;24.41;99733.88;5124277;27;20198;-70
2022/07/17 10:46:10;;;;;;;2.75;2.00;;;;;;;36.48;25.54;99725.44;5125910;27;20670;-70
2022/07/17 10:48:37;;;;;;;1.40;1.30;;;;;;;36.70;25.14;99714.38;5130186;27;20246;-70
2022/07/17 10:51:04;;;;;;;1.33;1.33;;;;;;;36.88;25.80;99727.09;5132225;27;20229;-70
2022/07/17 10:53:32;;;;;;;1.83;1.45;;;;;;;37.01;26.05;99724.41;5132186;27;20195;-71
2022/07/17 10:56:01;;;;;;;1.88;1.17;;;;;;;37.10;28.33;99720.50;5132340;27;20681;-70
2022/07/17 10:58:32;;;;;;;6.65;1.65;;;;;;;37.11;25.44;99722.13;5132485;27;20286;-70
2022/07/17 11:01:07;;;;;;;1.23;1.23;;;;;;;37.18;26.89;99709.59;5132511;27;20197;-69
2022/07/17 11:03:39;;;;;;;2.45;1.45;;;;;;;36.83;23.78;99724.22;5132307;27;20277;-70
2022/07/17 11:06:11;;;;;;;1.60;1.35;;;;;;;36.50;24.04;99723.38;5131773;27;20738;-70
2022/07/17 11:08:42;;;;;;;1.63;1.60;;;;;;;36.12;23.44;99720.47;5120122;27;20206;-71
2022/07/17 11:11:10;;;;;;;2.28;1.38;;;;;;;36.27;25.16;99716.59;5123144;27;20213;-70
2022/07/17 11:13:38;;;;;;;1.63;1.45;;;;;;;36.25;23.62;99721.28;5118205;27;20194;-70
2022/07/17 11:16:05;;;;;;;1.98;1.35;;;;;;;35.92;24.01;99728.41;5129956;27;20193;-70
2022/07/17 11:18:32;;;;;;;1.98;1.30;;;;;;;35.91;24.29;99720.59;5116001;27;20675;-70
2022/07/17 11:21:01;;;;;;;1.83;1.73;;;;;;;36.00;25.94;99717.53;5119890;27;20287;-69
2022/07/17 11:23:29;;;;;;;1.35;1.35;;;;;;;36.05;23.74;99709.75;5115699;27;20263;-71
2022/07/17 11:26:00;;;;;;;1.30;1.30;;;;;;;36.33;25.55;99713.09;5123276;27;20198;-69
2022/07/17 11:28:35;;;;;;;1.48;1.48;;;;;;;36.29;26.58;99700.34;5122832;27;20244;-70
2022/07/17 11:31:06;;;;;;;1.30;1.30;;;;;;;36.19;24.66;99695.41;5111108;28;20198;-70
2022/07/17 11:33:33;;;;;;;2.08;1.60;;;;;;;36.09;24.09;99694.19;5113469;28;20685;-68
2022/07/17 11:36:00;;;;;;;2.65;1.80;;;;;;;36.26;25.09;99695.41;5130465;28;20202;-68